createdAt,value
2023-03-16T00:01:47.061Z,6.38
2023-03-16T00:04:13.762Z,6.35
2023-03-16T00:06:40.430Z,7.18
2023-03-16T00:09:07.406Z,8.02
2023-03-16T00:11:34.090Z,7.97
2023-03-16T00:14:04.157Z,7.45
2023-03-16T00:16:31.262Z,7.35
2023-03-16T00:18:59.206Z,6.85
2023-03-16T00:21:26.260Z,8.02
2023-03-16T00:23:53.428Z,7.05
2023-03-16T00:26:20.150Z,6.80
2023-03-16T00:28:46.859Z,6.57
2023-03-16T00:31:14.374Z,5.93
2023-03-16T00:33:44.991Z,6.40
2023-03-16T00:36:12.817Z,5.85
2023-03-16T00:38:45.463Z,6.43
2023-03-16T00:41:15.329Z,5.60
2023-03-16T00:43:45.312Z,5.97
2023-03-16T00:46:14.996Z,5.88
2023-03-16T00:48:43.652Z,7.95
2023-03-16T00:51:17.351Z,6.65
2023-03-16T00:53:45.630Z,5.38
2023-03-16T00:56:13.806Z,6.13
2023-03-16T00:58:43.337Z,5.97
2023-03-16T01:01:16.244Z,8.82
2023-03-16T01:03:43.399Z,7.28
2023-03-16T01:06:13.181Z,7.18
2023-03-16T01:08:41.874Z,7.07
2023-03-16T01:11:11.867Z,6.75
2023-03-16T01:13:40.150Z,6.57
2023-03-16T01:16:07.793Z,6.18
2023-03-16T01:18:34.768Z,7.60
2023-03-16T01:21:06.858Z,6.35
2023-03-16T01:23:34.199Z,6.50
2023-03-16T01:26:02.149Z,7.25
2023-03-16T01:28:31.774Z,6.55
2023-03-16T01:31:17.087Z,9.07
2023-03-16T01:33:44.119Z,6.72
2023-03-16T01:36:14.441Z,7.25
2023-03-16T01:38:41.550Z,7.15
2023-03-16T01:41:08.987Z,6.65
2023-03-16T01:43:37.811Z,6.60
2023-03-16T01:46:04.694Z,6.30
2023-03-16T01:48:37.512Z,6.47
2023-03-16T01:51:09.676Z,7.10
2023-03-16T01:53:40.840Z,7.00
2023-03-16T01:56:10.769Z,7.40
2023-03-16T01:58:38.596Z,7.15
2023-03-16T02:01:05.516Z,7.32
2023-03-16T02:03:35.593Z,7.70
2023-03-16T02:06:18.256Z,12.27
2023-03-16T02:08:47.637Z,7.65
2023-03-16T02:11:18.177Z,8.23
2023-03-16T02:13:46.525Z,6.78
2023-03-16T02:16:19.418Z,7.13
2023-03-16T02:18:51.548Z,6.78
2023-03-16T02:21:25.547Z,6.43
2023-03-16T02:23:53.548Z,7.13
2023-03-16T02:26:44.893Z,7.75
2023-03-16T02:29:29.685Z,6.57
2023-03-16T02:31:58.267Z,7.50
2023-03-16T02:34:26.322Z,6.85
2023-03-16T02:36:54.833Z,6.88
2023-03-16T02:39:21.559Z,7.43
2023-03-16T02:41:48.376Z,6.20
2023-03-16T02:44:24.485Z,5.90
2023-03-16T02:46:54.845Z,6.72
2023-03-16T02:49:45.290Z,6.85
2023-03-16T02:52:12.505Z,7.68
2023-03-16T02:54:39.341Z,7.13
2023-03-16T02:57:06.077Z,6.82
2023-03-16T02:59:32.769Z,7.50
2023-03-16T03:01:59.525Z,6.72
2023-03-16T03:04:26.267Z,7.25
2023-03-16T03:06:52.955Z,8.23
2023-03-16T03:09:20.819Z,7.80
2023-03-16T03:11:47.846Z,8.20
2023-03-16T03:14:16.697Z,7.65
2023-03-16T03:16:46.656Z,8.45
2023-03-16T03:19:14.012Z,7.68
2023-03-16T03:21:41.880Z,6.30
2023-03-16T03:24:09.952Z,5.78
2023-03-16T03:26:38.149Z,5.65
2023-03-16T03:29:05.248Z,19.58
2023-03-16T03:31:32.015Z,12.18
2023-03-16T03:33:58.899Z,14.55
2023-03-16T03:36:25.785Z,5.70
2023-03-16T03:38:54.816Z,33.55
2023-03-16T03:41:22.771Z,5.70
2023-03-16T03:43:49.444Z,5.85
2023-03-16T03:46:16.263Z,6.30
2023-03-16T03:48:43.288Z,17.00
2023-03-16T03:51:10.065Z,10.73
2023-03-16T03:53:36.893Z,6.28
2023-03-16T03:56:03.686Z,6.50
2023-03-16T03:58:30.542Z,6.05
2023-03-16T04:00:57.274Z,5.20
2023-03-16T04:03:24.187Z,5.63
2023-03-16T04:05:51.059Z,6.45
2023-03-16T04:08:17.819Z,6.03
2023-03-16T04:10:44.705Z,5.75
2023-03-16T04:13:11.361Z,6.82
2023-03-16T04:15:38.780Z,5.72
2023-03-16T04:18:05.744Z,6.38
2023-03-16T04:20:32.567Z,5.80
2023-03-16T04:22:59.295Z,4.95
2023-03-16T04:25:27.882Z,6.07
2023-03-16T04:27:55.069Z,5.82
2023-03-16T04:30:23.530Z,6.82
2023-03-16T04:32:52.335Z,5.97
2023-03-16T04:35:19.619Z,5.32
2023-03-16T04:37:46.353Z,6.82
2023-03-16T04:40:16.382Z,6.20
2023-03-16T04:42:45.393Z,6.20
2023-03-16T04:45:12.967Z,6.50
2023-03-16T04:47:40.504Z,7.20
2023-03-16T04:50:08.895Z,7.95
2023-03-16T04:52:35.606Z,6.93
2023-03-16T04:55:02.394Z,7.35
2023-03-16T04:57:29.095Z,8.00
2023-03-16T04:59:55.863Z,8.60
2023-03-16T05:02:22.956Z,7.20
2023-03-16T05:04:49.775Z,7.88
2023-03-16T05:07:16.555Z,7.80
2023-03-16T05:09:43.533Z,7.75
2023-03-16T05:12:10.615Z,7.50
2023-03-16T05:14:37.457Z,6.80
2023-03-16T05:17:04.524Z,8.02
2023-03-16T05:19:31.248Z,7.93
2023-03-16T05:21:58.697Z,7.50
2023-03-16T05:24:25.769Z,8.63
2023-03-16T05:26:52.887Z,9.32
2023-03-16T05:29:19.633Z,9.35
2023-03-16T05:31:49.031Z,9.88
2023-03-16T05:34:16.517Z,9.15
2023-03-16T05:36:45.002Z,8.57
2023-03-16T05:39:11.847Z,8.93
2023-03-16T05:41:38.916Z,9.80
2023-03-16T05:44:05.859Z,10.45
2023-03-16T05:46:33.406Z,11.23
2023-03-16T05:49:00.490Z,11.15
2023-03-16T05:51:27.450Z,9.55
2023-03-16T05:53:57.615Z,10.38
2023-03-16T05:56:28.462Z,9.18
2023-03-16T05:58:56.036Z,9.20
2023-03-16T06:01:23.396Z,9.25
2023-03-16T06:03:52.142Z,8.88
2023-03-16T06:06:21.537Z,9.77
2023-03-16T06:08:48.708Z,9.82
2023-03-16T06:11:15.868Z,9.35
2023-03-16T06:13:42.720Z,9.48
2023-03-16T06:16:11.958Z,9.25
2023-03-16T06:18:39.667Z,8.95
2023-03-16T06:21:06.781Z,8.30
2023-03-16T06:23:34.126Z,8.05
2023-03-16T06:26:01.253Z,7.25
2023-03-16T06:28:28.161Z,9.02
2023-03-16T06:30:56.878Z,8.35
2023-03-16T06:33:24.832Z,8.98
2023-03-16T06:35:51.635Z,9.10
2023-03-16T06:38:19.472Z,7.70
2023-03-16T06:40:46.339Z,8.98
2023-03-16T06:43:13.265Z,11.45
2023-03-16T06:45:39.994Z,9.13
2023-03-16T06:48:07.502Z,9.55
2023-03-16T06:50:34.441Z,10.25
2023-03-16T06:53:01.167Z,10.48
2023-03-16T06:55:27.879Z,11.07
2023-03-16T06:57:54.564Z,12.07
2023-03-16T07:00:21.600Z,11.80
2023-03-16T07:02:48.313Z,12.70
2023-03-16T07:05:15.080Z,11.98
2023-03-16T07:07:43.248Z,11.95
2023-03-16T07:10:12.706Z,12.20
2023-03-16T07:12:39.712Z,13.63
2023-03-16T07:15:07.109Z,13.45
2023-03-16T07:17:33.869Z,13.60
2023-03-16T07:20:00.701Z,14.02
2023-03-16T07:22:27.369Z,13.20
2023-03-16T07:24:57.402Z,13.65
2023-03-16T07:27:25.136Z,12.93
2023-03-16T07:29:54.996Z,14.45
2023-03-16T07:32:22.674Z,14.65
2023-03-16T07:34:49.800Z,14.18
2023-03-16T07:37:18.393Z,13.27
2023-03-16T07:39:48.423Z,16.20
2023-03-16T07:42:15.145Z,14.93
2023-03-16T07:44:41.920Z,15.35
2023-03-16T07:47:12.610Z,15.43
2023-03-16T07:49:41.413Z,15.30
2023-03-16T07:52:08.435Z,14.93
2023-03-16T07:54:35.235Z,15.95
2023-03-16T07:57:02.321Z,16.40
2023-03-16T07:59:29.090Z,15.45
2023-03-16T08:01:55.830Z,17.00
2023-03-16T08:04:22.682Z,15.15
2023-03-16T08:06:49.521Z,16.40
2023-03-16T08:09:16.579Z,14.20
2023-03-16T08:11:43.307Z,14.95
2023-03-16T08:14:10.204Z,13.63
2023-03-16T08:16:37.423Z,13.77
2023-03-16T08:19:04.366Z,13.32
2023-03-16T08:21:31.118Z,14.10
2023-03-16T08:23:57.931Z,13.27
2023-03-16T08:26:24.883Z,13.85
2023-03-16T08:28:52.678Z,13.68
2023-03-16T08:31:20.880Z,12.40
2023-03-16T08:33:48.438Z,12.00
2023-03-16T08:36:16.490Z,11.18
2023-03-16T08:38:53.501Z,11.73
2023-03-16T08:41:30.621Z,12.20
2023-03-16T08:43:57.802Z,12.43
2023-03-16T08:46:24.691Z,11.35
2023-03-16T08:48:52.427Z,11.30
2023-03-16T08:51:19.417Z,12.38
2023-03-16T08:53:47.080Z,11.55
2023-03-16T08:56:14.814Z,11.32
2023-03-16T08:58:46.062Z,12.02
2023-03-16T09:01:15.354Z,11.18
2023-03-16T09:03:42.411Z,11.07
2023-03-16T09:06:11.334Z,11.25
2023-03-16T09:08:41.009Z,9.82
2023-03-16T09:11:14.123Z,10.25
2023-03-16T09:13:41.320Z,9.93
2023-03-16T09:16:09.194Z,9.85
2023-03-16T09:18:36.633Z,10.07
2023-03-16T09:21:06.722Z,10.38
2023-03-16T09:23:34.719Z,10.23
2023-03-16T09:26:04.977Z,11.15
2023-03-16T09:28:32.000Z,9.82
2023-03-16T09:30:59.187Z,10.40
2023-03-16T09:33:28.644Z,9.60
2023-03-16T09:35:57.492Z,10.40
2023-03-16T09:38:26.758Z,9.88
2023-03-16T09:41:39.229Z,10.00
2023-03-16T09:44:43.237Z,9.35
2023-03-16T09:47:12.182Z,8.65
2023-03-16T09:49:49.913Z,9.15
2023-03-16T09:52:17.103Z,8.98
2023-03-16T09:54:59.997Z,9.10
2023-03-16T09:57:34.851Z,9.70
2023-03-16T10:00:19.883Z,8.60
2023-03-16T10:03:08.706Z,9.70
2023-03-16T10:05:37.052Z,11.40
2023-03-16T10:08:06.682Z,9.85
2023-03-16T10:10:36.950Z,9.82
2023-03-16T10:13:05.497Z,9.18
2023-03-16T10:15:35.888Z,10.30
2023-03-16T10:18:16.291Z,10.25
2023-03-16T10:20:45.530Z,8.88
2023-03-16T10:23:22.899Z,9.80
2023-03-16T10:25:52.864Z,11.20
2023-03-16T10:28:28.127Z,10.15
2023-03-16T10:30:58.662Z,11.65
2023-03-16T10:33:27.600Z,10.50
2023-03-16T10:36:10.212Z,9.35
2023-03-16T10:38:40.008Z,11.90
2023-03-16T10:41:21.579Z,10.48
2023-03-16T10:44:07.564Z,11.65
2023-03-16T10:47:06.468Z,11.73
2023-03-16T10:49:42.242Z,11.02
2023-03-16T10:52:34.735Z,10.55
2023-03-16T10:55:19.507Z,10.30
2023-03-16T10:57:55.047Z,9.88
2023-03-16T11:00:36.672Z,9.85
2023-03-16T11:03:20.508Z,9.55
2023-03-16T11:05:47.208Z,9.10
2023-03-16T11:08:20.605Z,8.60
2023-03-16T11:10:57.616Z,9.05
2023-03-16T11:13:37.671Z,9.15
2023-03-16T11:16:35.422Z,8.18
2023-03-16T11:19:29.285Z,8.55
2023-03-16T11:22:01.501Z,7.30
2023-03-16T11:25:06.598Z,8.02
2023-03-16T11:27:49.060Z,7.50
2023-03-16T11:30:29.190Z,8.27
2023-03-16T11:32:57.255Z,9.03
2023-03-16T11:35:38.386Z,7.40
2023-03-16T11:38:27.064Z,7.97
2023-03-16T11:41:23.065Z,8.03
2023-03-16T11:43:56.974Z,5.83
2023-03-16T11:46:27.715Z,5.87
2023-03-16T11:49:33.758Z,5.50
2023-03-16T11:52:26.548Z,8.53
2023-03-16T11:55:24.830Z,5.97
2023-03-16T11:58:22.360Z,5.70
2023-03-16T12:01:18.414Z,5.40
2023-03-16T12:04:02.000Z,5.73
2023-03-16T12:06:53.768Z,5.53
2023-03-16T12:09:52.464Z,5.67
2023-03-16T12:12:24.927Z,4.37
2023-03-16T12:15:24.256Z,5.00
2023-03-16T12:17:57.545Z,4.50
2023-03-16T12:20:41.872Z,4.07
2023-03-16T12:23:22.870Z,4.57
2023-03-16T12:25:51.199Z,4.43
2023-03-16T12:28:26.379Z,6.53
2023-03-16T12:30:58.103Z,4.20
2023-03-16T12:33:57.614Z,6.80
2023-03-16T12:36:43.241Z,4.70
2023-03-16T12:39:28.016Z,4.23
2023-03-16T12:42:10.054Z,4.37
2023-03-16T12:44:47.865Z,3.27
2023-03-16T12:47:43.669Z,3.00
2023-03-16T12:50:15.246Z,4.03
2023-03-16T12:52:44.620Z,3.40
2023-03-16T12:55:24.528Z,3.63
2023-03-16T12:57:58.647Z,2.50
2023-03-16T13:00:42.689Z,2.53
2023-03-16T13:03:20.060Z,2.90
2023-03-16T13:05:51.517Z,3.23
2023-03-16T13:08:20.513Z,2.50
2023-03-16T13:11:10.895Z,2.43
2023-03-16T13:14:12.736Z,2.70
2023-03-16T13:16:40.284Z,4.53
2023-03-16T13:19:28.240Z,2.87
2023-03-16T13:22:05.230Z,3.07
2023-03-16T13:24:39.950Z,3.00
2023-03-16T13:27:21.042Z,3.93
2023-03-16T13:29:59.706Z,2.83
2023-03-16T13:32:31.965Z,2.60
2023-03-16T13:35:05.243Z,3.13
2023-03-16T13:37:32.244Z,3.33
2023-03-16T13:40:01.788Z,2.33
2023-03-16T13:42:33.595Z,2.63
2023-03-16T13:45:12.017Z,2.70
2023-03-16T13:47:43.359Z,2.50
2023-03-16T13:50:14.624Z,2.50
2023-03-16T13:52:44.217Z,2.60
2023-03-16T13:55:17.524Z,2.47
2023-03-16T13:57:46.416Z,3.80
2023-03-16T14:00:21.261Z,2.80
2023-03-16T14:02:53.209Z,2.77
2023-03-16T14:05:30.518Z,2.30
2023-03-16T14:08:00.560Z,2.00
2023-03-16T14:10:32.351Z,1.93
2023-03-16T14:13:24.256Z,2.27
2023-03-16T14:15:55.471Z,7.60
2023-03-16T14:18:54.936Z,2.10
2023-03-16T14:21:24.895Z,2.43
2023-03-16T14:24:06.618Z,2.53
2023-03-16T14:26:42.139Z,2.60
2023-03-16T14:29:21.371Z,2.50
2023-03-16T14:31:49.600Z,2.13
2023-03-16T14:34:35.994Z,1.73
2023-03-16T14:37:12.510Z,1.87
2023-03-16T14:39:42.487Z,2.70
2023-03-16T14:42:23.691Z,1.87
2023-03-16T14:44:50.485Z,2.23
2023-03-16T14:47:28.074Z,2.43
2023-03-16T14:49:58.967Z,2.50
2023-03-16T14:52:34.110Z,2.43
2023-03-16T14:55:05.594Z,2.67
2023-03-16T14:57:32.338Z,2.27
2023-03-16T14:59:59.249Z,2.27
2023-03-16T15:02:29.890Z,3.40
2023-03-16T15:04:58.352Z,2.40
2023-03-16T15:07:28.542Z,2.27
2023-03-16T15:10:00.947Z,2.50
2023-03-16T15:12:27.954Z,2.23
2023-03-16T15:15:13.332Z,2.13
2023-03-16T15:17:40.060Z,2.87
2023-03-16T15:20:07.368Z,3.00
2023-03-16T15:22:37.769Z,2.70
2023-03-16T15:25:22.910Z,2.53
2023-03-16T15:27:50.491Z,2.57
2023-03-16T15:30:23.319Z,2.30
2023-03-16T15:32:50.311Z,2.67
2023-03-16T15:35:18.024Z,3.10
2023-03-16T15:37:46.141Z,3.00
2023-03-16T15:40:25.207Z,3.67
2023-03-16T15:42:52.581Z,2.67
2023-03-16T15:45:22.344Z,2.90
2023-03-16T15:47:50.855Z,2.50
2023-03-16T15:50:20.775Z,2.40
2023-03-16T15:52:52.030Z,2.80
2023-03-16T15:55:23.603Z,3.23
2023-03-16T15:57:58.751Z,3.80
2023-03-16T16:00:34.958Z,3.40
2023-03-16T16:03:03.757Z,2.87
2023-03-16T16:05:31.144Z,2.90
2023-03-16T16:07:58.243Z,4.07
2023-03-16T16:10:26.810Z,2.87
2023-03-16T16:12:55.786Z,2.33
2023-03-16T16:15:26.662Z,6.80
2023-03-16T16:18:19.300Z,4.27
2023-03-16T16:20:41.250Z,5.50
2023-03-16T16:23:10.407Z,2.40
2023-03-16T16:25:40.305Z,2.40
2023-03-16T16:28:19.851Z,2.80
2023-03-16T16:30:46.684Z,3.10
2023-03-16T16:33:31.611Z,2.90
2023-03-16T16:36:01.538Z,2.57
2023-03-16T16:38:28.456Z,2.57
2023-03-16T16:40:58.678Z,2.83
2023-03-16T16:43:44.208Z,2.43
2023-03-16T16:46:16.603Z,3.43
2023-03-16T16:48:46.767Z,3.50
2023-03-16T16:51:18.526Z,2.67
2023-03-16T16:53:46.737Z,6.27
2023-03-16T16:56:16.163Z,3.03
2023-03-16T16:58:43.670Z,4.07
2023-03-16T17:01:15.814Z,3.40
2023-03-16T17:03:43.167Z,3.10
2023-03-16T17:06:17.015Z,2.87
2023-03-16T17:08:45.060Z,12.70
2023-03-16T17:11:22.320Z,16.27
2023-03-16T17:13:50.266Z,9.00
2023-03-16T17:16:18.277Z,3.33
2023-03-16T17:18:45.991Z,3.63
2023-03-16T17:21:15.999Z,2.73
2023-03-16T17:23:43.414Z,3.10
2023-03-16T17:26:20.744Z,3.00
2023-03-16T17:28:55.614Z,2.87
2023-03-16T17:31:25.181Z,2.07
2023-03-16T17:33:53.039Z,2.20
2023-03-16T17:36:21.407Z,1.73
2023-03-16T17:38:48.776Z,2.13
2023-03-16T17:41:23.009Z,2.30
2023-03-16T17:43:51.913Z,2.77
2023-03-16T17:46:21.421Z,3.63
2023-03-16T17:48:50.806Z,3.10
2023-03-16T17:51:17.942Z,3.07
2023-03-16T17:53:45.179Z,2.30
2023-03-16T17:56:24.467Z,2.43
2023-03-16T17:58:56.947Z,2.87
2023-03-16T18:01:30.086Z,3.30
2023-03-16T18:03:58.125Z,2.80
2023-03-16T18:06:26.531Z,2.60
2023-03-16T18:08:53.291Z,3.20
2023-03-16T18:11:23.215Z,3.90
2023-03-16T18:13:51.422Z,3.80
2023-03-16T18:16:23.318Z,22.50
2023-03-16T18:18:51.863Z,7.73
2023-03-16T18:21:21.917Z,3.20
2023-03-16T18:23:49.452Z,2.70
2023-03-16T18:26:16.380Z,3.43
2023-03-16T18:28:43.817Z,2.90
2023-03-16T18:31:21.305Z,3.47
2023-03-16T18:33:53.941Z,3.70
2023-03-16T18:36:26.565Z,2.47
2023-03-16T18:38:55.114Z,3.17
2023-03-16T18:41:24.585Z,3.20
2023-03-16T18:43:53.867Z,3.13
2023-03-16T18:46:37.166Z,2.80
2023-03-16T18:49:31.586Z,3.93
2023-03-16T18:51:58.392Z,3.30
2023-03-16T18:54:30.773Z,4.47
2023-03-16T18:57:04.151Z,4.20
2023-03-16T18:59:31.940Z,3.45
2023-03-16T19:01:58.939Z,6.07
2023-03-16T19:04:29.366Z,10.20
2023-03-16T19:06:57.398Z,5.72
2023-03-16T19:09:29.494Z,4.60
2023-03-16T19:11:57.359Z,5.30
2023-03-16T19:14:31.094Z,5.45
2023-03-16T19:16:58.102Z,5.47
2023-03-16T19:19:25.336Z,5.90
2023-03-16T19:21:54.963Z,8.05
2023-03-16T19:24:26.783Z,5.18
2023-03-16T19:26:54.409Z,5.50
2023-03-16T19:29:39.146Z,4.97
2023-03-16T19:32:06.066Z,4.15
2023-03-16T19:34:32.723Z,4.32
2023-03-16T19:36:59.378Z,5.78
2023-03-16T19:39:26.129Z,3.40
2023-03-16T19:41:57.076Z,3.83
2023-03-16T19:44:26.052Z,3.70
2023-03-16T19:46:52.985Z,3.75
2023-03-16T19:49:22.664Z,4.05
2023-03-16T19:51:51.388Z,4.95
2023-03-16T19:54:35.078Z,3.72
2023-03-16T19:57:07.147Z,3.60
2023-03-16T19:59:35.101Z,4.28
2023-03-16T20:02:02.283Z,3.33
2023-03-16T20:04:29.182Z,4.35
2023-03-16T20:06:55.886Z,4.03
2023-03-16T20:09:22.941Z,4.60
2023-03-16T20:11:49.880Z,4.07
2023-03-16T20:14:26.984Z,5.93
2023-03-16T20:16:53.745Z,3.72
2023-03-16T20:19:22.199Z,3.92
2023-03-16T20:21:49.240Z,4.82
2023-03-16T20:24:18.741Z,4.90
2023-03-16T20:26:47.747Z,4.38
2023-03-16T20:29:22.243Z,4.43
2023-03-16T20:31:49.155Z,6.82
2023-03-16T20:34:23.456Z,8.25
2023-03-16T20:36:50.465Z,14.30
2023-03-16T20:39:17.116Z,29.40
2023-03-16T20:41:44.110Z,20.90
2023-03-16T20:44:17.958Z,7.57
2023-03-16T20:46:45.154Z,4.85
2023-03-16T20:49:25.199Z,4.70
2023-03-16T20:51:52.338Z,3.80
2023-03-16T20:54:19.234Z,4.13
2023-03-16T20:56:46.757Z,4.57
2023-03-16T20:59:30.082Z,4.90
2023-03-16T21:01:56.760Z,6.95
2023-03-16T21:04:27.150Z,5.38
2023-03-16T21:06:55.680Z,5.45
2023-03-16T21:09:22.562Z,4.50
2023-03-16T21:11:49.586Z,4.22
2023-03-16T21:14:23.937Z,3.97
2023-03-16T21:16:52.365Z,4.10
2023-03-16T21:19:21.647Z,4.80
2023-03-16T21:21:48.889Z,3.95
2023-03-16T21:24:16.046Z,11.27
2023-03-16T21:26:43.578Z,5.15
2023-03-16T21:29:20.882Z,4.20
2023-03-16T21:31:48.425Z,5.35
2023-03-16T21:34:24.179Z,4.75
2023-03-16T21:36:50.988Z,4.40
2023-03-16T21:39:20.195Z,5.65
2023-03-16T21:41:49.777Z,3.67
2023-03-16T21:44:16.623Z,7.28
2023-03-16T21:46:43.538Z,4.70
2023-03-16T21:49:11.787Z,5.60
2023-03-16T21:51:40.108Z,4.75
2023-03-16T21:54:11.538Z,4.10
2023-03-16T21:56:38.966Z,4.25
2023-03-16T21:59:05.779Z,4.30
2023-03-16T22:01:34.152Z,4.40
2023-03-16T22:04:13.696Z,4.93
2023-03-16T22:06:42.251Z,4.50
2023-03-16T22:09:18.159Z,4.63
2023-03-16T22:11:44.958Z,5.00
2023-03-16T22:14:11.678Z,4.38
2023-03-16T22:16:39.302Z,3.80
2023-03-16T22:19:10.521Z,6.07
2023-03-16T22:21:42.739Z,4.40
2023-03-16T22:24:18.354Z,4.80
2023-03-16T22:26:46.347Z,4.85
2023-03-16T22:29:26.119Z,5.70
2023-03-16T22:31:59.435Z,4.30
2023-03-16T22:34:33.526Z,5.43
2023-03-16T22:37:01.670Z,4.97
2023-03-16T22:39:33.153Z,4.43
2023-03-16T22:41:59.913Z,4.88
2023-03-16T22:44:27.171Z,6.30
2023-03-16T22:46:53.807Z,5.13
2023-03-16T22:49:23.370Z,6.57
2023-03-16T22:51:52.531Z,5.30
2023-03-16T22:54:24.069Z,5.03
2023-03-16T22:56:51.561Z,4.82
2023-03-16T22:59:22.386Z,4.57
2023-03-16T23:01:50.218Z,5.13
2023-03-16T23:04:22.240Z,5.25
2023-03-16T23:06:52.555Z,5.05
2023-03-16T23:09:20.528Z,5.20
2023-03-16T23:11:52.433Z,5.57
2023-03-16T23:14:23.283Z,7.03
2023-03-16T23:16:52.476Z,5.00
2023-03-16T23:19:34.144Z,5.30
2023-03-16T23:22:06.047Z,4.95
2023-03-16T23:24:33.911Z,5.68
2023-03-16T23:27:01.195Z,5.10
2023-03-16T23:29:28.260Z,4.75
2023-03-16T23:31:55.046Z,5.15
2023-03-16T23:34:23.650Z,5.07
2023-03-16T23:36:51.361Z,4.47
2023-03-16T23:39:18.421Z,5.28
2023-03-16T23:41:47.988Z,4.88
2023-03-16T23:44:21.367Z,4.85
2023-03-16T23:46:48.051Z,4.82
2023-03-16T23:49:22.164Z,6.20
2023-03-16T23:51:49.420Z,5.65
2023-03-16T23:54:25.986Z,5.80
2023-03-16T23:56:52.855Z,5.50
2023-03-16T23:59:21.103Z,6.75
